sensor_id;sensor_type;location;lat;lon;timestamp;P1;durP1;ratioP1;P2;durP2;ratioP2
22270;SDS011;11304;53.520;10.104;2024-02-14T00:01:07;5.43;;;2.17;;
22270;SDS011;11304;53.520;10.104;2024-02-14T00:03:34;4.75;;;1.98;;
22270;SDS011;11304;53.520;10.104;2024-02-14T00:06:02;4.40;;;2.35;;
22270;SDS011;11304;53.520;10.104;2024-02-14T00:08:29;6.35;;;2.00;;
22270;SDS011;11304;53.520;10.104;2024-02-14T00:10:55;4.63;;;2.10;;
22270;SDS011;11304;53.520;10.104;2024-02-14T00:13:21;6.03;;;2.53;;
22270;SDS011;11304;53.520;10.104;2024-02-14T00:15:47;7.65;;;2.80;;
22270;SDS011;11304;53.520;10.104;2024-02-14T00:18:13;9.27;;;2.35;;
22270;SDS011;11304;53.520;10.104;2024-02-14T00:20:44;5.30;;;2.08;;
22270;SDS011;11304;53.520;10.104;2024-02-14T00:23:10;4.63;;;2.20;;
22270;SDS011;11304;53.520;10.104;2024-02-14T00:25:36;4.40;;;2.05;;
22270;SDS011;11304;53.520;10.104;2024-02-14T00:28:02;6.53;;;1.73;;
22270;SDS011;11304;53.520;10.104;2024-02-14T00:30:30;2.30;;;1.75;;
22270;SDS011;11304;53.520;10.104;2024-02-14T00:32:56;5.57;;;2.15;;
22270;SDS011;11304;53.520;10.104;2024-02-14T00:35:23;4.47;;;1.95;;
22270;SDS011;11304;53.520;10.104;2024-02-14T00:37:49;3.85;;;1.70;;
22270;SDS011;11304;53.520;10.104;2024-02-14T00:40:15;4.85;;;2.13;;
22270;SDS011;11304;53.520;10.104;2024-02-14T00:42:42;10.10;;;2.10;;
22270;SDS011;11304;53.520;10.104;2024-02-14T00:45:09;5.90;;;2.20;;
22270;SDS011;11304;53.520;10.104;2024-02-14T00:47:35;5.50;;;1.90;;
22270;SDS011;11304;53.520;10.104;2024-02-14T00:50:02;2.95;;;1.73;;
22270;SDS011;11304;53.520;10.104;2024-02-14T00:52:28;4.13;;;2.13;;
22270;SDS011;11304;53.520;10.104;2024-02-14T00:54:54;4.93;;;1.83;;
22270;SDS011;11304;53.520;10.104;2024-02-14T00:57:21;6.13;;;2.20;;
22270;SDS011;11304;53.520;10.104;2024-02-14T00:59:51;4.68;;;2.22;;
22270;SDS011;11304;53.520;10.104;2024-02-14T01:02:17;3.78;;;2.05;;
22270;SDS011;11304;53.520;10.104;2024-02-14T01:04:43;5.18;;;2.08;;
22270;SDS011;11304;53.520;10.104;2024-02-14T01:07:09;4.22;;;2.03;;
22270;SDS011;11304;53.520;10.104;2024-02-14T01:09:35;8.48;;;2.75;;
22270;SDS011;11304;53.520;10.104;2024-02-14T01:12:02;6.50;;;2.40;;
22270;SDS011;11304;53.520;10.104;2024-02-14T01:14:29;6.07;;;2.17;;
22270;SDS011;11304;53.520;10.104;2024-02-14T01:16:55;7.07;;;2.28;;
22270;SDS011;11304;53.520;10.104;2024-02-14T01:19:21;4.53;;;1.88;;
22270;SDS011;11304;53.520;10.104;2024-02-14T01:21:49;5.18;;;2.25;;
22270;SDS011;11304;53.520;10.104;2024-02-14T01:24:15;5.72;;;2.20;;
22270;SDS011;11304;53.520;10.104;2024-02-14T01:26:41;5.60;;;1.92;;
22270;SDS011;11304;53.520;10.104;2024-02-14T01:29:07;4.72;;;2.17;;
22270;SDS011;11304;53.520;10.104;2024-02-14T01:31:34;5.00;;;1.92;;
22270;SDS011;11304;53.520;10.104;2024-02-14T01:34:00;4.95;;;2.08;;
22270;SDS011;11304;53.520;10.104;2024-02-14T01:36:29;4.45;;;2.17;;
22270;SDS011;11304;53.520;10.104;2024-02-14T01:38:56;6.18;;;2.08;;
22270;SDS011;11304;53.520;10.104;2024-02-14T01:41:22;6.10;;;2.35;;
22270;SDS011;11304;53.520;10.104;2024-02-14T01:43:48;4.60;;;1.98;;
22270;SDS011;11304;53.520;10.104;2024-02-14T01:46:15;6.38;;;2.60;;
22270;SDS011;11304;53.520;10.104;2024-02-14T01:48:41;5.47;;;2.17;;
22270;SDS011;11304;53.520;10.104;2024-02-14T01:51:08;5.50;;;2.00;;
22270;SDS011;11304;53.520;10.104;2024-02-14T01:53:34;6.55;;;2.28;;
22270;SDS011;11304;53.520;10.104;2024-02-14T01:56:03;9.95;;;2.40;;
22270;SDS011;11304;53.520;10.104;2024-02-14T01:58:30;7.50;;;2.63;;
22270;SDS011;11304;53.520;10.104;2024-02-14T02:00:56;5.43;;;2.30;;
22270;SDS011;11304;53.520;10.104;2024-02-14T02:03:26;5.82;;;2.50;;
22270;SDS011;11304;53.520;10.104;2024-02-14T02:05:52;4.53;;;2.17;;
22270;SDS011;11304;53.520;10.104;2024-02-14T02:08:19;7.22;;;2.60;;
22270;SDS011;11304;53.520;10.104;2024-02-14T02:10:45;5.95;;;2.78;;
22270;SDS011;11304;53.520;10.104;2024-02-14T02:13:11;7.43;;;2.35;;
22270;SDS011;11304;53.520;10.104;2024-02-14T02:15:39;5.47;;;2.60;;
22270;SDS011;11304;53.520;10.104;2024-02-14T02:18:06;5.32;;;2.58;;
22270;SDS011;11304;53.520;10.104;2024-02-14T02:20:32;10.23;;;2.97;;
22270;SDS011;11304;53.520;10.104;2024-02-14T02:22:58;6.20;;;2.60;;
22270;SDS011;11304;53.520;10.104;2024-02-14T02:25:25;5.03;;;2.25;;
22270;SDS011;11304;53.520;10.104;2024-02-14T02:27:54;6.32;;;2.38;;
22270;SDS011;11304;53.520;10.104;2024-02-14T02:30:24;4.80;;;2.50;;
22270;SDS011;11304;53.520;10.104;2024-02-14T02:32:51;4.05;;;2.28;;
22270;SDS011;11304;53.520;10.104;2024-02-14T02:35:17;6.35;;;2.35;;
22270;SDS011;11304;53.520;10.104;2024-02-14T02:37:46;4.32;;;2.70;;
22270;SDS011;11304;53.520;10.104;2024-02-14T02:40:15;7.68;;;2.70;;
22270;SDS011;11304;53.520;10.104;2024-02-14T02:42:42;4.00;;;2.50;;
22270;SDS011;11304;53.520;10.104;2024-02-14T02:45:10;4.38;;;2.55;;
22270;SDS011;11304;53.520;10.104;2024-02-14T02:47:36;5.97;;;3.00;;
22270;SDS011;11304;53.520;10.104;2024-02-14T02:50:02;5.20;;;2.60;;
22270;SDS011;11304;53.520;10.104;2024-02-14T02:52:29;7.10;;;2.67;;
22270;SDS011;11304;53.520;10.104;2024-02-14T02:54:56;5.90;;;2.90;;
22270;SDS011;11304;53.520;10.104;2024-02-14T02:57:22;5.82;;;2.85;;
22270;SDS011;11304;53.520;10.104;2024-02-14T02:59:48;5.55;;;2.55;;
22270;SDS011;11304;53.520;10.104;2024-02-14T03:02:14;5.97;;;2.92;;
22270;SDS011;11304;53.520;10.104;2024-02-14T03:04:40;6.82;;;2.58;;
22270;SDS011;11304;53.520;10.104;2024-02-14T03:07:07;5.70;;;2.70;;
22270;SDS011;11304;53.520;10.104;2024-02-14T03:09:34;7.07;;;2.80;;
22270;SDS011;11304;53.520;10.104;2024-02-14T03:12:01;5.05;;;3.33;;
22270;SDS011;11304;53.520;10.104;2024-02-14T03:14:28;5.75;;;2.58;;
22270;SDS011;11304;53.520;10.104;2024-02-14T03:16:57;7.30;;;3.17;;
22270;SDS011;11304;53.520;10.104;2024-02-14T03:19:24;10.65;;;3.60;;
22270;SDS011;11304;53.520;10.104;2024-02-14T03:21:52;3.60;;;2.65;;
22270;SDS011;11304;53.520;10.104;2024-02-14T03:24:18;8.68;;;3.10;;
22270;SDS011;11304;53.520;10.104;2024-02-14T03:26:44;6.88;;;3.20;;
22270;SDS011;11304;53.520;10.104;2024-02-14T03:29:10;7.95;;;3.58;;
22270;SDS011;11304;53.520;10.104;2024-02-14T03:31:36;6.93;;;2.88;;
22270;SDS011;11304;53.520;10.104;2024-02-14T03:34:02;6.30;;;3.30;;
22270;SDS011;11304;53.520;10.104;2024-02-14T03:36:28;7.03;;;3.00;;
22270;SDS011;11304;53.520;10.104;2024-02-14T03:38:56;4.95;;;3.00;;
22270;SDS011;11304;53.520;10.104;2024-02-14T03:41:22;5.32;;;3.15;;
22270;SDS011;11304;53.520;10.104;2024-02-14T03:43:48;6.35;;;3.22;;
22270;SDS011;11304;53.520;10.104;2024-02-14T03:46:17;7.13;;;3.30;;
22270;SDS011;11304;53.520;10.104;2024-02-14T03:48:46;4.03;;;2.50;;
22270;SDS011;11304;53.520;10.104;2024-02-14T03:51:16;7.13;;;3.00;;
22270;SDS011;11304;53.520;10.104;2024-02-14T03:53:42;7.63;;;3.22;;
22270;SDS011;11304;53.520;10.104;2024-02-14T03:56:08;7.28;;;3.10;;
22270;SDS011;11304;53.520;10.104;2024-02-14T03:58:35;5.28;;;3.45;;
22270;SDS011;11304;53.520;10.104;2024-02-14T04:01:02;9.98;;;3.55;;
22270;SDS011;11304;53.520;10.104;2024-02-14T04:03:28;6.88;;;3.28;;
22270;SDS011;11304;53.520;10.104;2024-02-14T04:05:55;6.53;;;3.42;;
22270;SDS011;11304;53.520;10.104;2024-02-14T04:08:21;6.65;;;3.33;;
22270;SDS011;11304;53.520;10.104;2024-02-14T04:10:47;6.57;;;3.85;;
22270;SDS011;11304;53.520;10.104;2024-02-14T04:13:18;7.60;;;3.13;;
22270;SDS011;11304;53.520;10.104;2024-02-14T04:15:45;4.90;;;3.38;;
22270;SDS011;11304;53.520;10.104;2024-02-14T04:18:12;6.28;;;3.42;;
22270;SDS011;11304;53.520;10.104;2024-02-14T04:20:39;5.85;;;3.50;;
22270;SDS011;11304;53.520;10.104;2024-02-14T04:23:06;6.10;;;3.67;;
22270;SDS011;11304;53.520;10.104;2024-02-14T04:25:32;6.35;;;3.05;;
22270;SDS011;11304;53.520;10.104;2024-02-14T04:27:59;6.40;;;3.35;;
22270;SDS011;11304;53.520;10.104;2024-02-14T04:30:25;5.80;;;3.55;;
22270;SDS011;11304;53.520;10.104;2024-02-14T04:32:52;8.40;;;3.67;;
22270;SDS011;11304;53.520;10.104;2024-02-14T04:35:21;7.18;;;4.00;;
22270;SDS011;11304;53.520;10.104;2024-02-14T04:37:47;7.32;;;3.53;;
22270;SDS011;11304;53.520;10.104;2024-02-14T04:40:14;5.93;;;3.53;;
22270;SDS011;11304;53.520;10.104;2024-02-14T04:42:43;5.50;;;3.72;;
22270;SDS011;11304;53.520;10.104;2024-02-14T04:45:09;9.05;;;3.80;;
22270;SDS011;11304;53.520;10.104;2024-02-14T04:47:36;6.85;;;3.90;;
22270;SDS011;11304;53.520;10.104;2024-02-14T04:50:02;7.07;;;4.07;;
22270;SDS011;11304;53.520;10.104;2024-02-14T04:52:29;7.88;;;3.63;;
22270;SDS011;11304;53.520;10.104;2024-02-14T04:54:55;8.20;;;4.15;;
22270;SDS011;11304;53.520;10.104;2024-02-14T04:57:21;9.75;;;4.07;;
22270;SDS011;11304;53.520;10.104;2024-02-14T04:59:47;6.15;;;3.45;;
22270;SDS011;11304;53.520;10.104;2024-02-14T05:02:14;5.93;;;3.55;;
22270;SDS011;11304;53.520;10.104;2024-02-14T05:04:40;7.05;;;3.70;;
22270;SDS011;11304;53.520;10.104;2024-02-14T05:07:06;9.80;;;3.90;;
22270;SDS011;11304;53.520;10.104;2024-02-14T05:09:32;7.55;;;4.13;;
22270;SDS011;11304;53.520;10.104;2024-02-14T05:11:58;7.25;;;4.13;;
22270;SDS011;11304;53.520;10.104;2024-02-14T05:14:25;5.75;;;3.80;;
22270;SDS011;11304;53.520;10.104;2024-02-14T05:16:55;7.70;;;4.38;;
22270;SDS011;11304;53.520;10.104;2024-02-14T05:19:21;9.27;;;4.30;;
22270;SDS011;11304;53.520;10.104;2024-02-14T05:21:47;6.93;;;3.80;;
22270;SDS011;11304;53.520;10.104;2024-02-14T05:24:13;8.50;;;3.92;;
22270;SDS011;11304;53.520;10.104;2024-02-14T05:26:40;5.50;;;3.95;;
22270;SDS011;11304;53.520;10.104;2024-02-14T05:29:06;8.57;;;4.60;;
22270;SDS011;11304;53.520;10.104;2024-02-14T05:31:45;6.88;;;4.63;;
22270;SDS011;11304;53.520;10.104;2024-02-14T05:34:11;10.93;;;4.75;;
22270;SDS011;11304;53.520;10.104;2024-02-14T05:36:37;7.40;;;4.30;;
22270;SDS011;11304;53.520;10.104;2024-02-14T05:39:04;6.45;;;4.35;;
22270;SDS011;11304;53.520;10.104;2024-02-14T05:41:33;5.88;;;4.18;;
22270;SDS011;11304;53.520;10.104;2024-02-14T05:44:00;7.47;;;4.88;;
22270;SDS011;11304;53.520;10.104;2024-02-14T05:46:26;8.02;;;5.00;;
22270;SDS011;11304;53.520;10.104;2024-02-14T05:48:53;7.25;;;4.57;;
22270;SDS011;11304;53.520;10.104;2024-02-14T05:51:20;7.75;;;5.07;;
22270;SDS011;11304;53.520;10.104;2024-02-14T05:53:46;9.52;;;4.95;;
22270;SDS011;11304;53.520;10.104;2024-02-14T05:56:13;12.82;;;5.15;;
22270;SDS011;11304;53.520;10.104;2024-02-14T05:58:39;11.07;;;4.93;;
22270;SDS011;11304;53.520;10.104;2024-02-14T06:01:05;8.95;;;5.43;;
22270;SDS011;11304;53.520;10.104;2024-02-14T06:03:31;9.80;;;5.32;;
22270;SDS011;11304;53.520;10.104;2024-02-14T06:05:57;9.05;;;5.40;;
22270;SDS011;11304;53.520;10.104;2024-02-14T06:08:23;12.32;;;5.75;;
22270;SDS011;11304;53.520;10.104;2024-02-14T06:10:51;9.80;;;6.20;;
22270;SDS011;11304;53.520;10.104;2024-02-14T06:13:18;8.82;;;5.38;;
22270;SDS011;11304;53.520;10.104;2024-02-14T06:15:44;9.35;;;5.43;;
22270;SDS011;11304;53.520;10.104;2024-02-14T06:18:10;8.23;;;5.50;;
22270;SDS011;11304;53.520;10.104;2024-02-14T06:20:36;8.23;;;5.50;;
22270;SDS011;11304;53.520;10.104;2024-02-14T06:23:04;9.57;;;5.07;;
22270;SDS011;11304;53.520;10.104;2024-02-14T06:25:32;9.90;;;6.30;;
22270;SDS011;11304;53.520;10.104;2024-02-14T06:27:58;7.13;;;4.95;;
22270;SDS011;11304;53.520;10.104;2024-02-14T06:30:24;9.40;;;5.70;;
22270;SDS011;11304;53.520;10.104;2024-02-14T06:32:50;8.40;;;5.47;;
22270;SDS011;11304;53.520;10.104;2024-02-14T06:35:17;7.90;;;5.40;;
22270;SDS011;11304;53.520;10.104;2024-02-14T06:37:44;7.63;;;5.32;;
22270;SDS011;11304;53.520;10.104;2024-02-14T06:40:10;9.18;;;5.80;;
22270;SDS011;11304;53.520;10.104;2024-02-14T06:42:37;10.35;;;5.88;;
22270;SDS011;11304;53.520;10.104;2024-02-14T06:45:03;8.70;;;5.07;;
22270;SDS011;11304;53.520;10.104;2024-02-14T06:47:29;8.95;;;5.43;;
22270;SDS011;11304;53.520;10.104;2024-02-14T06:49:55;8.40;;;5.40;;
22270;SDS011;11304;53.520;10.104;2024-02-14T06:52:21;10.18;;;5.97;;
22270;SDS011;11304;53.520;10.104;2024-02-14T06:54:48;8.23;;;5.28;;
22270;SDS011;11304;53.520;10.104;2024-02-14T06:57:14;8.93;;;4.85;;
22270;SDS011;11304;53.520;10.104;2024-02-14T06:59:41;7.65;;;5.50;;
22270;SDS011;11304;53.520;10.104;2024-02-14T07:02:07;8.43;;;5.15;;
22270;SDS011;11304;53.520;10.104;2024-02-14T07:04:33;8.73;;;5.93;;
22270;SDS011;11304;53.520;10.104;2024-02-14T07:06:59;9.45;;;5.60;;
22270;SDS011;11304;53.520;10.104;2024-02-14T07:09:25;9.85;;;5.35;;
22270;SDS011;11304;53.520;10.104;2024-02-14T07:11:52;10.18;;;5.65;;
22270;SDS011;11304;53.520;10.104;2024-02-14T07:14:19;7.25;;;5.43;;
22270;SDS011;11304;53.520;10.104;2024-02-14T07:16:45;7.13;;;5.90;;
22270;SDS011;11304;53.520;10.104;2024-02-14T07:19:11;8.57;;;5.97;;
22270;SDS011;11304;53.520;10.104;2024-02-14T07:21:37;6.88;;;5.15;;
22270;SDS011;11304;53.520;10.104;2024-02-14T07:24:04;9.00;;;5.68;;
22270;SDS011;11304;53.520;10.104;2024-02-14T07:26:30;10.65;;;5.90;;
22270;SDS011;11304;53.520;10.104;2024-02-14T07:28:56;9.43;;;5.53;;
22270;SDS011;11304;53.520;10.104;2024-02-14T07:31:24;8.50;;;5.85;;
22270;SDS011;11304;53.520;10.104;2024-02-14T07:33:55;8.80;;;5.95;;
22270;SDS011;11304;53.520;10.104;2024-02-14T07:36:21;5.90;;;4.97;;
22270;SDS011;11304;53.520;10.104;2024-02-14T07:38:47;9.40;;;5.70;;
22270;SDS011;11304;53.520;10.104;2024-02-14T07:41:13;11.18;;;6.38;;
22270;SDS011;11304;53.520;10.104;2024-02-14T07:43:39;6.75;;;5.25;;
22270;SDS011;11304;53.520;10.104;2024-02-14T07:46:06;6.85;;;5.18;;
22270;SDS011;11304;53.520;10.104;2024-02-14T07:48:32;9.00;;;5.60;;
22270;SDS011;11304;53.520;10.104;2024-02-14T07:50:59;7.80;;;5.55;;
22270;SDS011;11304;53.520;10.104;2024-02-14T07:53:25;8.48;;;6.03;;
22270;SDS011;11304;53.520;10.104;2024-02-14T07:55:51;8.00;;;5.55;;
22270;SDS011;11304;53.520;10.104;2024-02-14T07:58:20;9.25;;;5.72;;
22270;SDS011;11304;53.520;10.104;2024-02-14T08:00:46;6.85;;;5.10;;
22270;SDS011;11304;53.520;10.104;2024-02-14T08:03:12;8.93;;;5.80;;
22270;SDS011;11304;53.520;10.104;2024-02-14T08:05:39;8.43;;;5.68;;
22270;SDS011;11304;53.520;10.104;2024-02-14T08:08:07;7.68;;;5.47;;
22270;SDS011;11304;53.520;10.104;2024-02-14T08:10:33;8.50;;;5.70;;
22270;SDS011;11304;53.520;10.104;2024-02-14T08:13:00;6.82;;;5.30;;
22270;SDS011;11304;53.520;10.104;2024-02-14T08:15:26;7.82;;;5.45;;
22270;SDS011;11304;53.520;10.104;2024-02-14T08:17:52;9.05;;;5.80;;
22270;SDS011;11304;53.520;10.104;2024-02-14T08:20:21;8.77;;;5.63;;
22270;SDS011;11304;53.520;10.104;2024-02-14T08:22:47;8.85;;;5.60;;
22270;SDS011;11304;53.520;10.104;2024-02-14T08:25:14;10.63;;;5.70;;
22270;SDS011;11304;53.520;10.104;2024-02-14T08:27:40;10.77;;;5.82;;
22270;SDS011;11304;53.520;10.104;2024-02-14T08:30:06;9.02;;;5.82;;
22270;SDS011;11304;53.520;10.104;2024-02-14T08:32:34;7.05;;;5.00;;
22270;SDS011;11304;53.520;10.104;2024-02-14T08:35:00;9.52;;;6.45;;
22270;SDS011;11304;53.520;10.104;2024-02-14T08:37:26;7.20;;;5.47;;
22270;SDS011;11304;53.520;10.104;2024-02-14T08:39:52;8.38;;;5.32;;
22270;SDS011;11304;53.520;10.104;2024-02-14T08:42:19;7.25;;;5.50;;
22270;SDS011;11304;53.520;10.104;2024-02-14T08:44:45;7.15;;;5.65;;
22270;SDS011;11304;53.520;10.104;2024-02-14T08:47:11;7.25;;;5.20;;
22270;SDS011;11304;53.520;10.104;2024-02-14T08:49:40;9.35;;;5.90;;
22270;SDS011;11304;53.520;10.104;2024-02-14T08:52:07;5.78;;;5.03;;
22270;SDS011;11304;53.520;10.104;2024-02-14T08:54:33;6.97;;;5.10;;
22270;SDS011;11304;53.520;10.104;2024-02-14T08:56:59;6.75;;;5.20;;
22270;SDS011;11304;53.520;10.104;2024-02-14T08:59:26;8.77;;;5.72;;
22270;SDS011;11304;53.520;10.104;2024-02-14T09:01:52;8.10;;;5.40;;
22270;SDS011;11304;53.520;10.104;2024-02-14T09:04:18;7.40;;;5.95;;
22270;SDS011;11304;53.520;10.104;2024-02-14T09:06:44;9.98;;;5.72;;
22270;SDS011;11304;53.520;10.104;2024-02-14T09:09:10;7.50;;;5.30;;
22270;SDS011;11304;53.520;10.104;2024-02-14T09:11:37;7.05;;;5.20;;
22270;SDS011;11304;53.520;10.104;2024-02-14T09:14:03;8.27;;;5.53;;
22270;SDS011;11304;53.520;10.104;2024-02-14T09:16:32;9.60;;;6.20;;
22270;SDS011;11304;53.520;10.104;2024-02-14T09:18:59;6.82;;;5.25;;
22270;SDS011;11304;53.520;10.104;2024-02-14T09:21:26;8.40;;;5.38;;
22270;SDS011;11304;53.520;10.104;2024-02-14T09:23:53;5.97;;;4.97;;
22270;SDS011;11304;53.520;10.104;2024-02-14T09:26:20;7.47;;;5.13;;
22270;SDS011;11304;53.520;10.104;2024-02-14T09:28:46;8.57;;;5.45;;
22270;SDS011;11304;53.520;10.104;2024-02-14T09:31:17;5.68;;;4.72;;
22270;SDS011;11304;53.520;10.104;2024-02-14T09:33:44;8.35;;;5.60;;
22270;SDS011;11304;53.520;10.104;2024-02-14T09:36:12;7.32;;;5.25;;
22270;SDS011;11304;53.520;10.104;2024-02-14T09:38:40;6.63;;;4.88;;
22270;SDS011;11304;53.520;10.104;2024-02-14T09:41:20;5.55;;;4.63;;
22270;SDS011;11304;53.520;10.104;2024-02-14T09:43:48;7.93;;;5.80;;
22270;SDS011;11304;53.520;10.104;2024-02-14T09:46:15;5.43;;;4.53;;
22270;SDS011;11304;53.520;10.104;2024-02-14T09:48:45;7.93;;;6.03;;
22270;SDS011;11304;53.520;10.104;2024-02-14T09:51:12;8.23;;;4.93;;
22270;SDS011;11304;53.520;10.104;2024-02-14T09:53:38;5.93;;;5.07;;
22270;SDS011;11304;53.520;10.104;2024-02-14T09:56:05;6.28;;;5.22;;
22270;SDS011;11304;53.520;10.104;2024-02-14T09:58:32;5.95;;;5.00;;
22270;SDS011;11304;53.520;10.104;2024-02-14T10:00:58;7.55;;;5.60;;
22270;SDS011;11304;53.520;10.104;2024-02-14T10:03:24;6.60;;;5.80;;
22270;SDS011;11304;53.520;10.104;2024-02-14T10:05:51;7.18;;;5.00;;
22270;SDS011;11304;53.520;10.104;2024-02-14T10:08:21;5.80;;;4.97;;
22270;SDS011;11304;53.520;10.104;2024-02-14T10:10:48;5.40;;;4.22;;
22270;SDS011;11304;53.520;10.104;2024-02-14T10:13:17;6.15;;;4.53;;
22270;SDS011;11304;53.520;10.104;2024-02-14T10:15:44;5.32;;;4.32;;
22270;SDS011;11304;53.520;10.104;2024-02-14T10:18:10;6.70;;;5.10;;
22270;SDS011;11304;53.520;10.104;2024-02-14T10:20:37;5.35;;;4.10;;
22270;SDS011;11304;53.520;10.104;2024-02-14T10:23:08;4.78;;;4.22;;
22270;SDS011;11304;53.520;10.104;2024-02-14T10:25:37;4.40;;;4.00;;
22270;SDS011;11304;53.520;10.104;2024-02-14T10:28:06;4.00;;;3.60;;
22270;SDS011;11304;53.520;10.104;2024-02-14T10:30:34;5.65;;;3.72;;
22270;SDS011;11304;53.520;10.104;2024-02-14T10:33:01;6.47;;;3.70;;
22270;SDS011;11304;53.520;10.104;2024-02-14T10:35:28;5.30;;;3.67;;
22270;SDS011;11304;53.520;10.104;2024-02-14T10:37:57;4.18;;;3.42;;
22270;SDS011;11304;53.520;10.104;2024-02-14T10:40:30;4.18;;;3.30;;
22270;SDS011;11304;53.520;10.104;2024-02-14T10:42:57;3.95;;;3.40;;
22270;SDS011;11304;53.520;10.104;2024-02-14T10:45:24;7.38;;;3.05;;
22270;SDS011;11304;53.520;10.104;2024-02-14T10:47:51;4.40;;;3.07;;
22270;SDS011;11304;53.520;10.104;2024-02-14T10:50:20;5.00;;;3.42;;
22270;SDS011;11304;53.520;10.104;2024-02-14T10:55:14;3.30;;;2.60;;
22270;SDS011;11304;53.520;10.104;2024-02-14T10:57:45;2.95;;;2.60;;
22270;SDS011;11304;53.520;10.104;2024-02-14T11:00:12;4.55;;;2.72;;
22270;SDS011;11304;53.520;10.104;2024-02-14T11:02:40;4.97;;;2.80;;
22270;SDS011;11304;53.520;10.104;2024-02-14T11:05:13;4.65;;;2.63;;
22270;SDS011;11304;53.520;10.104;2024-02-14T11:07:46;3.20;;;2.63;;
22270;SDS011;11304;53.520;10.104;2024-02-14T11:10:14;2.40;;;1.90;;
22270;SDS011;11304;53.520;10.104;2024-02-14T11:12:41;3.33;;;2.38;;
22270;SDS011;11304;53.520;10.104;2024-02-14T11:17:37;4.72;;;2.40;;
22270;SDS011;11304;53.520;10.104;2024-02-14T11:20:16;3.83;;;2.60;;
22270;SDS011;11304;53.520;10.104;2024-02-14T11:23:00;4.72;;;2.25;;
22270;SDS011;11304;53.520;10.104;2024-02-14T11:25:32;2.58;;;1.85;;
22270;SDS011;11304;53.520;10.104;2024-02-14T11:27:59;2.70;;;2.10;;
22270;SDS011;11304;53.520;10.104;2024-02-14T11:30:31;3.03;;;2.17;;
22270;SDS011;11304;53.520;10.104;2024-02-14T11:35:38;3.40;;;2.90;;
22270;SDS011;11304;53.520;10.104;2024-02-14T11:38:04;4.78;;;3.05;;
22270;SDS011;11304;53.520;10.104;2024-02-14T11:40:32;4.65;;;2.72;;
22270;SDS011;11304;53.520;10.104;2024-02-14T11:42:58;5.03;;;2.88;;
22270;SDS011;11304;53.520;10.104;2024-02-14T11:45:24;4.20;;;3.30;;
22270;SDS011;11304;53.520;10.104;2024-02-14T11:47:50;5.30;;;2.90;;
22270;SDS011;11304;53.520;10.104;2024-02-14T11:50:17;4.53;;;3.67;;
22270;SDS011;11304;53.520;10.104;2024-02-14T11:52:44;4.00;;;3.40;;
22270;SDS011;11304;53.520;10.104;2024-02-14T11:55:10;3.53;;;3.22;;
22270;SDS011;11304;53.520;10.104;2024-02-14T12:00:05;5.63;;;3.17;;
22270;SDS011;11304;53.520;10.104;2024-02-14T12:02:31;4.82;;;3.03;;
22270;SDS011;11304;53.520;10.104;2024-02-14T12:04:57;3.72;;;3.10;;
22270;SDS011;11304;53.520;10.104;2024-02-14T12:07:24;3.22;;;2.92;;
22270;SDS011;11304;53.520;10.104;2024-02-14T12:09:50;6.35;;;3.35;;
22270;SDS011;11304;53.520;10.104;2024-02-14T12:12:16;7.18;;;3.65;;
22270;SDS011;11304;53.520;10.104;2024-02-14T12:14:45;4.20;;;3.72;;
22270;SDS011;11304;53.520;10.104;2024-02-14T12:17:15;5.88;;;3.20;;
22270;SDS011;11304;53.520;10.104;2024-02-14T12:19:44;4.10;;;3.17;;
22270;SDS011;11304;53.520;10.104;2024-02-14T12:22:10;6.35;;;3.92;;
22270;SDS011;11304;53.520;10.104;2024-02-14T12:24:46;4.43;;;3.72;;
22270;SDS011;11304;53.520;10.104;2024-02-14T12:27:16;6.78;;;4.80;;
22270;SDS011;11304;53.520;10.104;2024-02-14T12:29:45;6.20;;;4.60;;
22270;SDS011;11304;53.520;10.104;2024-02-14T12:32:11;8.03;;;4.87;;
22270;SDS011;11304;53.520;10.104;2024-02-14T12:34:43;6.55;;;5.10;;
22270;SDS011;11304;53.520;10.104;2024-02-14T12:37:09;5.78;;;5.15;;
22270;SDS011;11304;53.520;10.104;2024-02-14T12:39:36;5.70;;;5.03;;
22270;SDS011;11304;53.520;10.104;2024-02-14T12:42:03;7.28;;;6.55;;
22270;SDS011;11304;53.520;10.104;2024-02-14T12:44:29;7.10;;;6.13;;
22270;SDS011;11304;53.520;10.104;2024-02-14T12:46:56;8.85;;;6.85;;
22270;SDS011;11304;53.520;10.104;2024-02-14T12:49:23;7.28;;;6.47;;
22270;SDS011;11304;53.520;10.104;2024-02-14T12:51:51;9.25;;;7.22;;
22270;SDS011;11304;53.520;10.104;2024-02-14T12:54:17;7.80;;;6.10;;
22270;SDS011;11304;53.520;10.104;2024-02-14T12:56:44;8.18;;;7.30;;
22270;SDS011;11304;53.520;10.104;2024-02-14T12:59:14;8.80;;;7.88;;
22270;SDS011;11304;53.520;10.104;2024-02-14T13:01:42;8.93;;;7.63;;
22270;SDS011;11304;53.520;10.104;2024-02-14T13:04:08;8.15;;;7.35;;
22270;SDS011;11304;53.520;10.104;2024-02-14T13:06:35;8.30;;;7.47;;
22270;SDS011;11304;53.520;10.104;2024-02-14T13:09:02;9.55;;;7.70;;
22270;SDS011;11304;53.520;10.104;2024-02-14T13:11:31;8.13;;;7.22;;
22270;SDS011;11304;53.520;10.104;2024-02-14T13:13:57;7.72;;;6.70;;
22270;SDS011;11304;53.520;10.104;2024-02-14T13:16:23;8.80;;;7.30;;
22270;SDS011;11304;53.520;10.104;2024-02-14T13:18:50;10.00;;;7.68;;
22270;SDS011;11304;53.520;10.104;2024-02-14T13:21:18;7.85;;;6.68;;
22270;SDS011;11304;53.520;10.104;2024-02-14T13:23:44;6.57;;;5.88;;
22270;SDS011;11304;53.520;10.104;2024-02-14T13:26:10;8.73;;;5.80;;
22270;SDS011;11304;53.520;10.104;2024-02-14T13:28:36;6.45;;;5.78;;
22270;SDS011;11304;53.520;10.104;2024-02-14T13:31:02;10.50;;;6.25;;
22270;SDS011;11304;53.520;10.104;2024-02-14T13:33:28;7.35;;;5.40;;
22270;SDS011;11304;53.520;10.104;2024-02-14T13:35:54;7.03;;;6.10;;
22270;SDS011;11304;53.520;10.104;2024-02-14T13:38:20;8.48;;;5.97;;
22270;SDS011;11304;53.520;10.104;2024-02-14T13:40:46;7.13;;;5.72;;
22270;SDS011;11304;53.520;10.104;2024-02-14T13:43:13;6.32;;;4.90;;
22270;SDS011;11304;53.520;10.104;2024-02-14T13:45:42;7.65;;;6.05;;
22270;SDS011;11304;53.520;10.104;2024-02-14T13:48:09;7.90;;;6.13;;
22270;SDS011;11304;53.520;10.104;2024-02-14T13:50:35;6.93;;;5.63;;
22270;SDS011;11304;53.520;10.104;2024-02-14T13:53:03;8.45;;;5.28;;
22270;SDS011;11304;53.520;10.104;2024-02-14T13:55:29;6.18;;;5.57;;
22270;SDS011;11304;53.520;10.104;2024-02-14T13:57:55;9.57;;;5.93;;
22270;SDS011;11304;53.520;10.104;2024-02-14T14:00:21;8.32;;;6.07;;
22270;SDS011;11304;53.520;10.104;2024-02-14T14:02:47;7.63;;;5.18;;
22270;SDS011;11304;53.520;10.104;2024-02-14T14:05:13;6.07;;;5.32;;
22270;SDS011;11304;53.520;10.104;2024-02-14T14:07:39;7.57;;;6.20;;
22270;SDS011;11304;53.520;10.104;2024-02-14T14:10:06;9.10;;;5.60;;
22270;SDS011;11304;53.520;10.104;2024-02-14T14:12:32;6.10;;;5.30;;
22270;SDS011;11304;53.520;10.104;2024-02-14T14:14:58;6.72;;;5.35;;
22270;SDS011;11304;53.520;10.104;2024-02-14T14:17:25;5.57;;;5.00;;
22270;SDS011;11304;53.520;10.104;2024-02-14T14:19:51;8.27;;;5.68;;
22270;SDS011;11304;53.520;10.104;2024-02-14T14:22:17;7.15;;;5.38;;
22270;SDS011;11304;53.520;10.104;2024-02-14T14:24:43;6.38;;;5.20;;
22270;SDS011;11304;53.520;10.104;2024-02-14T14:27:09;5.30;;;4.80;;
22270;SDS011;11304;53.520;10.104;2024-02-14T14:29:40;8.13;;;5.18;;
22270;SDS011;11304;53.520;10.104;2024-02-14T14:32:07;5.38;;;4.60;;
22270;SDS011;11304;53.520;10.104;2024-02-14T14:34:33;5.85;;;5.15;;
22270;SDS011;11304;53.520;10.104;2024-02-14T14:36:59;6.22;;;5.18;;
22270;SDS011;11304;53.520;10.104;2024-02-14T14:39:26;5.82;;;4.97;;
22270;SDS011;11304;53.520;10.104;2024-02-14T14:41:52;6.45;;;4.85;;